Time;durP1;ratioP1;P1;durP2;ratioP2;P2;SDS_P1;SDS_P2;PMS_P1;PMS_P2;Temp;Humidity;BMP_temperature;BMP_pressure;BME280_temperature;BME280_humidity;BME280_pressure;Samples;Min_cycle;Max_cycle;Signal;HPM_P1;HPM_P2
2022/07/29 00:10:48;;;;;;;;;;;;;;;;;;;;;
2022/07/29 00:55:43;;;;;;;;;;;;;;;;;;;;;
2022/07/29 01:39:26;;;;;;;15.80;3.60;;;;;;;13.72;48.46;99212.41;108853;1267;22476;31
2022/07/29 01:50:10;;;;;;;;;;;;;;;;;;;;;
2022/07/29 02:56:10;;;;;;;;;;;;;;;;;;;;;
2022/07/29 03:05:25;;;;;;;;;;;;;;;;;;;;;
2022/07/29 03:15:44;;;;;;;;;;;;;;;;;;;;;
2022/07/29 03:47:25;;;;;;;;;;;;;;;;;;;;;
2022/07/29 03:56:40;;;;;;;;;;;;;;;;;;;;;
2022/07/29 04:02:55;;;;;;;;;;;;;;;;;;;;;
2022/07/29 04:17:00;;;;;;;;;;;;;;;;;;;;;
2022/07/29 04:20:06;;;;;;;;;;;;;;;;;;;;;
2022/07/29 04:26:14;;;;;;;;;;;;;;;;;;;;;
2022/07/29 04:32:29;;;;;;;;;;;;;;;;;;;;;
2022/07/29 04:39:00;;;;;;;;;;;;;;;;;;;;;
2022/07/29 05:01:12;;;;;;;;;;;;;;;;;;;;;
2022/07/29 05:07:28;;;;;;;;;;;;;;;;;;;;;
2022/07/29 05:19:58;;;;;;;;;;;;;;;;;;;;;
2022/07/29 05:32:26;;;;;;;;;;;;;;;;;;;;;
2022/07/29 05:42:26;;;;;;;11.40;2.80;;;;;;;16.92;52.04;99182.21;109410;1280;22515;-92
2022/07/29 05:46:19;;;;;;;;;;;;;;;;;;;;;
2022/07/29 05:52:43;;;;;;;;;;;;;;;;;;;;;
2022/07/29 05:58:42;;;;;;;;;;;;;;;;;;;;;
2022/07/29 06:01:54;;;;;;;;;;;;;;;;;;;;;
2022/07/29 06:04:50;;;;;;;13.60;3.00;;;;;;;18.26;52.10;99181.77;106503;1271;22664;-94
2022/07/29 06:08:44;;;;;;;;;;;;;;;;;;;;;
2022/07/29 06:15:46;;;;;;;12.00;2.70;;;;;;;19.07;51.77;99167.39;109402;1271;23966;31
2022/07/29 06:22:32;;;;;;;;;;;;;;;;;;;;;
2022/07/29 06:25:35;;;;;;;;;;;;;;;;;;;;;
2022/07/29 06:32:09;;;;;;;;;;;;;;;;;;;;;
2022/07/29 06:38:44;;;;;;;9.70;2.90;;;;;;;19.85;51.36;99179.80;109559;1269;23452;31
2022/07/29 07:04:20;;;;;;;;;;;;;;;;;;;;;
2022/07/29 07:13:36;;;;;;;;;;;;;;;;;;;;;
2022/07/29 07:17:07;;;;;;;;;;;;;;;;;;;;;
2022/07/29 07:23:24;;;;;;;;;;;;;;;;;;;;;
2022/07/29 07:26:39;;;;;;;;;;;;;;;;;;;;;
2022/07/29 07:30:08;;;;;;;;;;;;;;;;;;;;;
2022/07/29 07:42:40;;;;;;;12.90;2.90;;;;;;;21.99;50.79;99165.11;109193;1268;22543;-90
2022/07/29 07:45:42;;;;;;;;;;;;;;;;;;;;;
2022/07/29 07:55:21;;;;;;;14.80;3.10;;;;;;;22.59;50.01;99164.27;109424;1268;22591;-91
2022/07/29 08:01:56;;;;;;;;;;;;;;;;;;;;;
2022/07/29 08:04:35;;;;;;;8.40;2.70;;;;;;;23.10;49.96;99173.25;109439;1271;22505;-94
2022/07/29 08:11:05;;;;;;;;;;;;;;;;;;;;;
2022/07/29 08:14:03;;;;;;;;;;;;;;;;;;;;;
2022/07/29 08:20:32;;;;;;;;;;;;;;;;;;;;;
2022/07/29 08:23:04;;;;;;;15.60;2.70;;;;;;;24.13;49.46;99159.75;109392;1271;22533;-91
2022/07/29 08:29:26;;;;;;;10.60;2.60;;;;;;;24.70;49.26;99163.35;109372;1271;22391;-93
2022/07/29 08:31:54;;;;;;;12.30;2.80;;;;;;;25.02;48.88;99167.15;109344;1270;23254;-91
2022/07/29 08:34:48;;;;;;;;;;;;;;;;;;;;;
2022/07/29 08:50:11;;;;;;;12.20;2.70;;;;;;;25.61;48.23;99160.17;109580;1273;22419;-90
2022/07/29 08:53:26;;;;;;;;;;;;;;;;;;;;;
2022/07/29 08:56:21;;;;;;;;;;;;;;;;;;;;;
2022/07/29 09:05:43;;;;;;;10.60;2.60;;;;;;;25.43;47.91;99157.66;109517;1268;22544;-89
2022/07/29 09:12:19;;;;;;;;;;;;;;;;;;;;;
2022/07/29 09:16:06;;;;;;;10.20;2.60;;;;;;;25.60;47.64;99158.41;109364;1281;23355;-93
2022/07/29 09:19:31;;;;;;;11.90;2.80;;;;;;;25.81;47.54;99148.17;109373;1281;22509;-93
2022/07/29 09:22:33;;;;;;;8.40;2.00;;;;;;;26.04;47.21;99154.19;108883;1283;22457;-91
2022/07/29 09:25:56;;;;;;;;;;;;;;;;;;;;;
2022/07/29 09:28:41;;;;;;;8.80;2.50;;;;;;;26.56;46.93;99146.07;109379;1282;22458;-91
2022/07/29 09:31:33;;;;;;;9.40;2.60;;;;;;;26.97;46.85;99145.82;109089;1283;22410;-91
2022/07/29 09:34:31;;;;;;;10.50;2.80;;;;;;;27.69;47.17;99146.44;109455;1270;22193;-94
2022/07/29 09:37:54;;;;;;;6.80;2.10;;;;;;;28.17;46.68;99140.48;109466;1280;23083;-89
2022/07/29 09:41:14;;;;;;;;;;;;;;;;;;;;;
2022/07/29 09:44:35;;;;;;;6.60;2.00;;;;;;;28.31;45.93;99139.49;109346;1271;22447;-90
2022/07/29 09:48:02;;;;;;;;;;;;;;;;;;;;;
2022/07/29 09:51:27;;;;;;;;;;;;;;;;;;;;;
2022/07/29 09:54:40;;;;;;;8.00;2.50;;;;;;;28.22;45.78;99130.50;109507;1267;22524;-89
2022/07/29 09:58:26;;;;;;;6.80;2.50;;;;;;;28.37;45.68;99125.44;108845;1284;22411;-92
2022/07/29 10:01:50;;;;;;;8.30;2.20;;;;;;;28.48;45.25;99129.60;109555;1268;23028;-92
2022/07/29 10:05:12;;;;;;;13.50;2.30;;;;;;;28.41;45.10;99122.02;109005;1281;22663;-90
2022/07/29 10:08:31;;;;;;;8.00;2.00;;;;;;;28.13;44.97;99122.67;108496;1284;22373;-91
2022/07/29 10:11:28;;;;;;;6.30;2.10;;;;;;;27.88;44.87;99122.29;109425;1279;22483;-92
2022/07/29 10:14:31;;;;;;;;;;;;;;;;;;;;;
2022/07/29 10:17:20;;;;;;;6.80;2.50;;;;;;;28.05;44.95;99118.71;109317;1280;22322;-92
2022/07/29 10:24:37;;;;;;;8.20;2.20;;;;;;;28.24;44.62;99114.69;107174;1299;22814;-93
2022/07/29 10:27:39;;;;;;;7.50;2.10;;;;;;;28.22;44.25;99108.89;107291;1300;22867;-92
2022/07/29 10:31:43;;;;;;;7.00;2.40;;;;;;;28.28;44.19;99117.02;107186;1299;22646;-92
2022/07/29 10:34:28;;;;;;;7.40;2.30;;;;;;;28.42;44.09;99105.35;106368;1311;22310;-89
2022/07/29 10:41:39;;;;;;;8.50;2.30;;;;;;;28.71;43.46;99098.88;109418;1281;22513;-93
2022/07/29 10:48:08;;;;;;;7.20;2.10;;;;;;;28.98;43.62;99096.73;109239;1281;22495;-93
2022/07/29 10:55:04;;;;;;;;;;;;;;;;;;;;;
2022/07/29 11:02:18;;;;;;;6.30;2.20;;;;;;;28.50;43.03;99093.83;109320;1281;22377;-94
2022/07/29 11:05:34;;;;;;;;;;;;;;;;;;;;;
2022/07/29 11:09:10;;;;;;;9.00;2.10;;;;;;;28.07;42.98;99095.77;108957;1281;23074;-92
2022/07/29 11:12:31;;;;;;;9.60;2.20;;;;;;;27.91;42.64;99099.89;109149;1281;22457;-91
2022/07/29 11:15:58;;;;;;;6.70;2.40;;;;;;;27.87;42.79;99100.63;109286;1282;22374;-90
2022/07/29 11:19:38;;;;;;;16.20;2.70;;;;;;;28.04;42.61;99104.37;108777;1282;22458;-93
2022/07/29 11:22:45;;;;;;;7.70;1.80;;;;;;;28.47;42.89;99090.30;108369;1282;22513;-92
2022/07/29 11:25:55;;;;;;;;;;;;;;;;;;;;;
2022/07/29 11:29:49;;;;;;;;;;;;;;;;;;;;;
2022/07/29 11:32:38;;;;;;;6.90;2.20;;;;;;;28.56;42.08;99095.98;108870;1284;22475;-91
2022/07/29 11:36:44;;;;;;;10.90;2.40;;;;;;;28.42;42.00;99087.15;108801;1283;22366;-90
2022/07/29 11:39:36;;;;;;;;;;;;;;;;;;;;;
2022/07/29 11:43:38;;;;;;;;;;;;;;;;;;;;;
2022/07/29 11:47:02;;;;;;;6.90;2.50;;;;;;;28.55;41.87;99094.21;107001;1302;23083;-89
2022/07/29 11:50:28;;;;;;;5.90;2.00;;;;;;;28.70;41.70;99093.52;107168;1302;22367;-92
2022/07/29 11:53:33;;;;;;;6.50;1.90;;;;;;;28.93;41.84;99096.62;107107;1303;22390;-87
2022/07/29 11:56:44;;;;;;;;;;;;;;;;;;;;;
2022/07/29 12:00:30;;;;;;;;;;;;;;;;;;;;;
2022/07/29 12:03:26;;;;;;;8.00;2.10;;;;;;;30.16;41.57;99076.70;106712;1307;22887;-90
2022/07/29 12:06:26;;;;;;;5.30;1.80;;;;;;;30.56;40.98;99076.88;106641;1307;22358;-91
2022/07/29 12:09:17;;;;;;;6.50;2.00;;;;;;;30.74;40.91;99071.01;106504;1308;22335;-90
2022/07/29 12:12:39;;;;;;;11.90;2.30;;;;;;;30.99;40.79;99062.33;106568;1308;23125;-88
2022/07/29 12:15:29;;;;;;;5.80;2.10;;;;;;;30.91;40.55;99066.65;107271;1299;22499;-92
2022/07/29 12:18:20;;;;;;;8.10;2.40;;;;;;;30.77;40.31;99062.13;107289;1299;22219;-91
2022/07/29 12:24:51;;;;;;;7.00;2.30;;;;;;;30.69;40.48;99054.50;109456;1281;22480;-90
2022/07/29 12:27:30;;;;;;;12.10;2.40;;;;;;;30.63;39.95;99051.35;109151;1281;22215;-91
2022/07/29 12:30:32;;;;;;;6.50;2.40;;;;;;;30.44;40.00;99051.61;109177;1281;22353;-88
2022/07/29 12:33:13;;;;;;;7.80;2.40;;;;;;;30.61;40.21;99046.73;109040;1281;22478;-94
2022/07/29 12:36:04;;;;;;;8.70;2.10;;;;;;;30.78;39.89;99040.70;108987;1282;23025;-89
2022/07/29 12:38:58;;;;;;;;;;;;;;;;;;;;;
2022/07/29 12:41:37;;;;;;;6.90;2.20;;;;;;;30.63;39.43;99038.13;108969;1281;22869;-90
2022/07/29 12:44:43;;;;;;;9.40;1.90;;;;;;;30.39;39.53;99036.67;109190;1281;22353;-92
2022/07/29 12:47:41;;;;;;;5.90;2.40;;;;;;;30.17;39.61;99039.01;109145;1281;23038;-94
2022/07/29 12:50:46;;;;;;;9.60;2.50;;;;;;;29.87;39.58;99039.10;109166;1280;22248;-95
2022/07/29 12:53:14;;;;;;;6.60;1.90;;;;;;;29.66;39.66;99035.45;108973;1282;22406;-89
2022/07/29 12:56:15;;;;;;;5.40;2.30;;;;;;;29.73;39.73;99042.23;109452;1280;22320;-92
2022/07/29 12:58:55;;;;;;;5.70;1.80;;;;;;;29.88;39.67;99038.65;108573;1287;23140;-93
2022/07/29 13:01:28;;;;;;;7.00;2.30;;;;;;;29.98;39.59;99032.23;108385;1287;22450;-90
2022/07/29 13:04:38;;;;;;;7.70;2.40;;;;;;;30.14;39.23;99032.48;108307;1288;22517;-92
2022/07/29 13:07:37;;;;;;;6.60;1.90;;;;;;;30.27;39.10;99032.86;108350;1287;22414;-91
2022/07/29 13:10:22;;;;;;;6.60;2.10;;;;;;;30.24;38.75;99030.66;108519;1287;22401;-90
2022/07/29 13:13:51;;;;;;;6.50;1.80;;;;;;;30.07;38.95;99024.38;108225;1288;22502;-90
2022/07/29 13:16:28;;;;;;;6.50;1.90;;;;;;;29.94;39.00;99029.45;108245;1288;23010;-90
2022/07/29 13:19:27;;;;;;;;;;;;;;;;;;;;;
2022/07/29 13:22:08;;;;;;;10.70;1.90;;;;;;;30.24;38.82;99022.13;108267;1287;22606;-93
2022/07/29 13:25:21;;;;;;;;;;;;;;;;;;;;;
2022/07/29 13:28:01;;;;;;;7.10;2.00;;;;;;;30.31;38.40;99017.05;108413;1287;22271;-89
2022/07/29 13:31:13;;;;;;;12.00;2.40;;;;;;;30.08;38.04;99019.82;108169;1287;22520;-93
2022/07/29 13:33:47;;;;;;;7.20;2.20;;;;;;;29.96;38.52;99016.72;108122;1288;22544;-92
2022/07/29 13:36:22;;;;;;;8.90;1.90;;;;;;;29.97;38.17;99010.91;108654;1282;22527;-91
2022/07/29 13:39:21;;;;;;;10.40;2.20;;;;;;;29.96;38.71;99006.92;108783;1282;23165;-91
2022/07/29 13:42:40;;;;;;;8.00;2.20;;;;;;;30.19;38.50;99007.55;109094;1281;22454;-93
2022/07/29 13:44:44;;;;;;;10.00;2.60;;;;;;;30.18;38.09;99001.33;108756;1282;22365;-90
2022/07/29 13:47:12;;;;;;;8.00;1.90;;;;;;;29.98;37.96;99005.42;108870;1282;22374;-88
2022/07/29 13:49:54;;;;;;;10.80;2.00;;;;;;;29.83;38.04;99007.30;109027;1281;22529;-91
2022/07/29 13:52:27;;;;;;;10.80;2.10;;;;;;;29.71;38.09;99001.91;109070;1282;22419;-90
2022/07/29 13:54:54;;;;;;;8.10;2.10;;;;;;;29.60;38.15;99003.02;109067;1282;22340;-89
2022/07/29 13:57:30;;;;;;;9.00;2.40;;;;;;;29.58;38.02;99000.77;109034;1281;22400;-92
2022/07/29 14:00:13;;;;;;;6.90;2.10;;;;;;;29.55;38.19;98999.48;109042;1281;22348;-93
2022/07/29 14:03:11;;;;;;;5.90;2.30;;;;;;;29.61;38.17;98993.42;109019;1282;22449;-91
2022/07/29 14:05:40;;;;;;;8.10;2.40;;;;;;;29.57;37.96;98993.86;108779;1282;22353;-92
2022/07/29 14:08:13;;;;;;;9.70;2.40;;;;;;;29.38;37.82;98994.50;109187;1282;22300;-90
2022/07/29 14:10:40;;;;;;;10.10;2.20;;;;;;;29.11;37.66;98994.72;108874;1282;22167;-91
2022/07/29 14:13:11;;;;;;;8.20;2.30;;;;;;;28.93;38.00;98995.18;109081;1282;22372;-92
2022/07/29 14:15:40;;;;;;;5.50;1.90;;;;;;;28.85;38.00;98994.77;109150;1282;22328;-89
2022/07/29 14:18:27;;;;;;;12.40;2.30;;;;;;;28.75;38.10;98998.88;109087;1281;22381;-93
2022/07/29 14:20:59;;;;;;;9.30;2.10;;;;;;;28.63;37.82;98995.27;108838;1282;22179;-92
2022/07/29 14:23:26;;;;;;;7.40;2.20;;;;;;;28.53;38.09;98993.60;109144;1281;22133;-91
2022/07/29 14:25:53;;;;;;;6.80;2.00;;;;;;;28.43;37.96;98986.15;108656;1282;22804;-91
2022/07/29 14:28:23;;;;;;;5.90;2.20;;;;;;;28.30;37.92;98983.85;108774;1282;22466;-89
2022/07/29 14:30:58;;;;;;;9.20;2.30;;;;;;;28.15;37.79;98979.76;109026;1281;23365;-92
2022/07/29 14:33:31;;;;;;;12.30;2.50;;;;;;;28.00;37.80;98979.52;108852;1282;22168;-92
2022/07/29 14:36:03;;;;;;;8.30;2.70;;;;;;;27.93;38.06;98981.27;108804;1282;22506;-93
2022/07/29 14:38:37;;;;;;;9.40;2.60;;;;;;;27.99;38.45;98982.79;108775;1282;22392;-93
2022/07/29 14:41:17;;;;;;;9.00;2.70;;;;;;;28.07;38.31;98974.33;108219;1287;22525;-89
2022/07/29 14:43:51;;;;;;;6.80;2.60;;;;;;;28.15;38.23;98975.74;108157;1287;22325;-91
2022/07/29 14:46:19;;;;;;;6.50;2.60;;;;;;;28.34;38.15;98980.56;108440;1287;22397;-90
2022/07/29 14:48:48;;;;;;;9.60;2.70;;;;;;;28.41;38.41;98975.43;108441;1287;22362;-90
2022/07/29 14:51:18;;;;;;;9.70;3.10;;;;;;;28.53;38.21;98982.40;108244;1287;22478;-92
2022/07/29 14:53:48;;;;;;;8.60;2.60;;;;;;;28.54;38.40;98984.60;108122;1287;22201;-90
2022/07/29 14:56:30;;;;;;;11.00;3.40;;;;;;;28.56;38.36;98987.16;108191;1287;22397;-91
2022/07/29 14:59:05;;;;;;;12.90;3.40;;;;;;;28.55;38.45;98979.80;108156;1287;22240;-90
2022/07/29 15:01:34;;;;;;;12.80;3.00;;;;;;;28.54;38.39;98979.69;108206;1287;22361;-91
2022/07/29 15:04:09;;;;;;;10.10;3.10;;;;;;;28.50;38.35;98977.95;108167;1287;22498;-92
2022/07/29 15:06:53;;;;;;;9.10;3.40;;;;;;;28.52;38.25;98989.55;108337;1287;22384;-91
2022/07/29 15:09:26;;;;;;;9.70;2.90;;;;;;;28.49;38.37;98978.70;108189;1287;22419;-90
2022/07/29 15:12:12;;;;;;;8.30;2.90;;;;;;;28.43;38.43;98977.91;108554;1282;22356;-89
2022/07/29 15:14:54;;;;;;;8.40;2.90;;;;;;;28.41;38.61;98979.70;108738;1281;22489;-91
2022/07/29 15:17:32;;;;;;;7.40;3.00;;;;;;;28.31;38.21;98979.06;108906;1282;22408;-90
2022/07/29 15:20:01;;;;;;;13.10;3.10;;;;;;;28.26;38.72;98978.30;108747;1283;22296;-92
2022/07/29 15:22:39;;;;;;;8.90;3.00;;;;;;;28.25;38.58;98982.16;108567;1284;22567;-91
2022/07/29 15:25:30;;;;;;;;;;;;;;;;;;;;;
2022/07/29 15:28:29;;;;;;;8.80;3.00;;;;;;;28.60;38.85;98969.31;108873;1282;22495;-93
2022/07/29 15:30:59;;;;;;;8.60;2.50;;;;;;;28.78;38.63;98976.70;108746;1284;22265;-90
2022/07/29 15:33:26;;;;;;;7.50;2.40;;;;;;;28.84;38.56;98975.11;108774;1282;22236;-93
2022/07/29 15:36:12;;;;;;;8.50;2.60;;;;;;;29.01;38.56;98969.67;108780;1284;22269;-90
2022/07/29 15:38:45;;;;;;;11.10;2.60;;;;;;;29.37;38.59;98971.33;108820;1282;22399;-90
2022/07/29 15:41:15;;;;;;;10.60;2.60;;;;;;;29.63;38.63;98965.50;108758;1284;23214;-90
2022/07/29 15:43:47;;;;;;;7.90;2.80;;;;;;;29.72;38.28;98968.15;109109;1281;22286;-90
2022/07/29 15:49:30;;;;;;;6.60;2.40;;;;;;;29.37;38.22;98968.11;108668;1282;22475;-88
2022/07/29 15:52:23;;;;;;;9.20;2.90;;;;;;;29.12;38.13;98957.21;108858;1282;23195;-91
2022/07/29 15:55:14;;;;;;;7.40;2.80;;;;;;;28.90;38.30;98953.17;108823;1282;22465;-92
2022/07/29 15:57:57;;;;;;;8.30;3.30;;;;;;;28.63;38.51;98953.59;108577;1284;22396;-89
2022/07/29 16:00:35;;;;;;;9.00;3.50;;;;;;;28.48;38.67;98958.71;108870;1282;22172;-91
2022/07/29 16:03:07;;;;;;;12.20;3.60;;;;;;;28.51;38.55;98960.02;108754;1284;22836;-91
2022/07/29 16:06:09;;;;;;;8.30;3.60;;;;;;;28.53;38.71;98957.45;108774;1284;22527;-90
2022/07/29 16:08:59;;;;;;;9.60;4.00;;;;;;;28.62;38.80;98955.80;108886;1282;22432;-91
2022/07/29 16:12:07;;;;;;;10.90;4.20;;;;;;;28.68;38.85;98958.44;108808;1284;22442;-92
2022/07/29 16:15:11;;;;;;;14.10;3.70;;;;;;;28.67;38.85;98956.05;108879;1282;22447;-92
2022/07/29 16:18:02;;;;;;;11.90;3.80;;;;;;;28.58;39.10;98957.15;108832;1284;22408;-91
2022/07/29 16:20:53;;;;;;;11.00;3.90;;;;;;;28.36;39.15;98954.65;108804;1282;22359;-89
2022/07/29 16:24:40;;;;;;;14.00;3.50;;;;;;;28.15;39.41;98956.96;108979;1283;22442;-90
2022/07/29 16:27:28;;;;;;;;;;;;;;;;;;;;;
2022/07/29 16:30:07;;;;;;;8.30;3.60;;;;;;;27.71;39.53;98951.34;108868;1284;22325;-92
2022/07/29 16:32:50;;;;;;;8.80;3.40;;;;;;;27.61;39.47;98951.27;108912;1284;22317;-92
2022/07/29 16:35:29;;;;;;;10.40;3.40;;;;;;;27.51;39.61;98953.64;108914;1282;23066;-91
2022/07/29 16:38:15;;;;;;;13.70;3.30;;;;;;;27.38;39.73;98954.79;108834;1284;22474;-90
2022/07/29 16:41:13;;;;;;;11.50;3.40;;;;;;;27.34;39.89;98952.33;108862;1282;22580;-91
2022/07/29 16:43:52;;;;;;;11.30;3.40;;;;;;;27.31;39.75;98951.92;109150;1281;22375;-93
2022/07/29 16:46:22;;;;;;;11.20;3.30;;;;;;;27.20;40.00;98950.95;108902;1284;22487;-92
2022/07/29 16:48:52;;;;;;;10.70;3.70;;;;;;;27.06;39.84;98951.77;108595;1284;22410;-92
2022/07/29 16:51:24;;;;;;;10.40;3.70;;;;;;;26.92;40.16;98949.92;108718;1284;22358;-90
2022/07/29 16:54:07;;;;;;;10.90;3.70;;;;;;;26.84;40.06;98951.48;108609;1284;22370;-89
2022/07/29 16:57:30;;;;;;;11.80;3.70;;;;;;;26.73;40.10;98954.64;104727;1284;5279393;-92
2022/07/29 17:00:30;;;;;;;9.60;3.40;;;;;;;26.53;40.13;98959.06;108889;1282;22383;-89
2022/07/29 17:03:24;;;;;;;9.10;3.60;;;;;;;26.33;40.30;98956.61;108730;1282;22303;-92
2022/07/29 17:06:59;;;;;;;9.60;3.80;;;;;;;26.22;40.54;98957.38;108587;1284;22404;-90
2022/07/29 17:17:14;;;;;;;;;;;;;;;;;;;;;
2022/07/29 17:20:37;;;;;;;9.20;3.90;;;;;;;25.97;41.11;98964.15;109552;1281;22482;-93
2022/07/29 17:30:08;;;;;;;12.10;3.60;;;;;;;25.71;41.40;98964.31;109690;1269;22607;-89
2022/07/29 17:34:08;;;;;;;;;;;;;;;;;;;;;
2022/07/29 17:37:16;;;;;;;10.20;3.30;;;;;;;25.46;41.61;98970.27;109384;1269;22519;-92
2022/07/29 17:44:08;;;;;;;7.20;3.30;;;;;;;25.20;41.89;98971.00;109663;1281;22419;-92
2022/07/29 17:46:53;;;;;;;8.80;3.30;;;;;;;25.09;41.95;98970.13;108784;1282;22355;-94
2022/07/29 17:49:57;;;;;;;9.00;3.30;;;;;;;24.88;41.98;98957.93;109497;1279;22461;-91
2022/07/29 17:52:28;;;;;;;9.20;3.40;;;;;;;24.78;42.31;98960.55;108734;1281;22377;-91
2022/07/29 17:55:23;;;;;;;7.80;3.70;;;;;;;24.70;42.44;98962.19;108891;1281;22050;-91
2022/07/29 17:57:53;;;;;;;12.50;4.80;;;;;;;24.60;42.61;98960.85;109339;1269;22224;-91
2022/07/29 18:00:21;;;;;;;14.90;7.60;;;;;;;24.51;42.61;98967.30;109034;1274;22366;-85
2022/07/29 18:02:56;;;;;;;74.40;45.50;;;;;;;24.39;42.84;98963.84;109184;1279;22464;-85
2022/07/29 18:14:22;;;;;;;13.90;6.90;;;;;;;23.95;43.11;98974.70;108424;1287;23175;-90
2022/07/29 18:21:28;;;;;;;12.60;5.20;;;;;;;23.69;43.46;98967.95;109153;1280;22864;-85
2022/07/29 18:24:26;;;;;;;9.80;4.40;;;;;;;23.59;43.77;98961.75;108785;1281;22514;-92
2022/07/29 18:27:15;;;;;;;9.20;4.10;;;;;;;23.47;43.70;98964.40;108798;1281;22163;-91
2022/07/29 18:30:01;;;;;;;11.20;3.90;;;;;;;23.33;43.90;98970.23;108891;1281;22393;-92
2022/07/29 18:32:39;;;;;;;9.40;3.90;;;;;;;23.18;44.09;98969.69;108727;1281;22918;-92
2022/07/29 18:35:14;;;;;;;9.70;3.90;;;;;;;23.02;44.18;98971.97;108722;1281;22947;-89
2022/07/29 18:37:52;;;;;;;12.60;4.80;;;;;;;22.85;44.39;98970.14;108731;1281;23075;-89
2022/07/29 18:40:24;;;;;;;10.60;4.30;;;;;;;22.76;44.55;98970.02;108749;1281;22249;-91
2022/07/29 18:42:51;;;;;;;8.90;4.20;;;;;;;22.72;44.68;98968.45;108742;1281;22353;-90
2022/07/29 18:45:32;;;;;;;12.50;4.60;;;;;;;22.64;44.73;98961.94;108917;1281;22380;-91
2022/07/29 18:48:08;;;;;;;9.80;4.10;;;;;;;22.53;44.79;98961.17;108836;1281;22366;-91
2022/07/29 18:50:46;;;;;;;10.20;3.80;;;;;;;22.39;44.87;98960.10;109315;1281;22947;-91
2022/07/29 18:53:25;;;;;;;13.10;3.80;;;;;;;22.23;44.99;98961.90;108913;1281;22260;-91
2022/07/29 18:55:56;;;;;;;10.40;4.40;;;;;;;22.10;45.29;98962.02;108728;1280;22492;-91
2022/07/29 18:58:32;;;;;;;14.00;5.80;;;;;;;22.02;45.44;98959.79;108959;1281;22220;-93
2022/07/29 19:01:13;;;;;;;17.00;6.80;;;;;;;21.98;45.68;98963.70;108912;1281;22486;-91
2022/07/29 19:03:46;;;;;;;32.20;14.70;;;;;;;21.89;45.50;98978.41;108646;1282;22445;-90
2022/07/29 19:06:22;;;;;;;33.70;17.00;;;;;;;21.75;45.76;98978.33;108836;1281;22350;-92
2022/07/29 19:09:05;;;;;;;28.10;12.80;;;;;;;21.58;45.89;98984.63;108937;1281;22425;-90
2022/07/29 19:11:51;;;;;;;28.60;12.70;;;;;;;21.44;46.19;98983.05;108789;1282;23056;-92
2022/07/29 19:14:27;;;;;;;23.50;8.10;;;;;;;21.30;46.28;98980.32;108688;1282;22367;-92
2022/07/29 19:16:59;;;;;;;19.30;7.10;;;;;;;21.23;46.40;98982.94;108758;1281;22505;-91
2022/07/29 19:19:38;;;;;;;20.20;7.60;;;;;;;21.13;46.51;98980.86;108634;1282;22649;-93
2022/07/29 19:22:05;;;;;;;16.50;7.70;;;;;;;21.07;46.70;98980.54;108939;1280;22430;-92
2022/07/29 19:24:43;;;;;;;19.60;6.40;;;;;;;21.02;46.83;98975.85;109050;1280;22461;-92
2022/07/29 19:27:26;;;;;;;24.50;7.90;;;;;;;21.01;46.96;98977.38;109364;1280;22338;-91
2022/07/29 19:30:05;;;;;;;19.00;7.40;;;;;;;20.94;47.05;98980.40;108878;1280;22490;-91
2022/07/29 19:32:35;;;;;;;24.70;7.00;;;;;;;20.89;47.17;98981.55;108985;1281;23120;-91
2022/07/29 19:38:05;;;;;;;20.40;6.00;;;;;;;20.73;47.51;98985.16;109158;1280;23102;-89
2022/07/29 19:40:44;;;;;;;13.10;6.60;;;;;;;20.65;47.80;98983.20;109144;1280;22570;-92
2022/07/29 19:43:19;;;;;;;12.40;5.70;;;;;;;20.48;47.93;98979.19;109072;1279;22513;-91
2022/07/29 19:45:58;;;;;;;12.70;4.60;;;;;;;20.36;48.01;98978.06;108937;1281;23108;-91
2022/07/29 19:48:33;;;;;;;21.60;5.20;;;;;;;20.25;48.28;98976.77;109118;1280;22349;-90
2022/07/29 19:51:11;;;;;;;36.80;6.60;;;;;;;20.16;48.34;98975.88;108782;1282;22177;-91
2022/07/29 19:53:44;;;;;;;45.00;6.70;;;;;;;20.12;48.45;98974.61;108943;1280;22239;-91
2022/07/29 19:56:19;;;;;;;37.80;6.10;;;;;;;20.11;48.69;98978.13;108910;1280;22201;-91
2022/07/29 19:58:54;;;;;;;31.00;7.20;;;;;;;20.09;48.70;98976.61;109033;1281;23225;-92
2022/07/29 20:02:09;;;;;;;32.30;6.80;;;;;;;20.02;48.95;98974.80;108949;1279;22339;-92
2022/07/29 20:04:46;;;;;;;28.90;5.70;;;;;;;19.94;49.07;98976.03;108927;1280;22585;-92
2022/07/29 20:07:14;;;;;;;21.30;5.80;;;;;;;19.90;49.31;98976.91;109019;1280;22028;-91
2022/07/29 20:09:58;;;;;;;27.50;5.70;;;;;;;19.87;49.16;98982.79;109071;1280;22289;-92
2022/07/29 20:12:59;;;;;;;;;;;;;;;;;;;;;
2022/07/29 20:15:48;;;;;;;24.10;6.30;;;;;;;19.74;49.63;98982.70;109315;1279;23065;-93
2022/07/29 20:18:42;;;;;;;21.40;6.20;;;;;;;19.69;49.84;98982.00;108995;1280;22357;-92
2022/07/29 20:21:44;;;;;;;18.50;5.10;;;;;;;19.71;49.99;98989.64;109339;1280;23311;-92
2022/07/29 20:24:57;;;;;;;13.10;5.00;;;;;;;19.66;50.05;98988.73;108986;1279;22321;-92
2022/07/29 20:28:11;;;;;;;16.40;4.90;;;;;;;19.70;50.16;98983.31;109351;1280;22358;-92
2022/07/29 20:31:20;;;;;;;15.50;5.10;;;;;;;19.77;50.38;98982.57;109322;1279;22409;-92
2022/07/29 20:34:23;;;;;;;12.80;5.40;;;;;;;19.81;50.47;98988.89;109028;1280;22383;-91
2022/07/29 20:37:30;;;;;;;11.30;4.90;;;;;;;19.79;50.37;98979.27;109287;1279;22368;-92
2022/07/29 20:40:54;;;;;;;12.60;4.30;;;;;;;19.75;50.50;98978.57;109421;1280;22266;-92
2022/07/29 20:43:43;;;;;;;13.70;5.30;;;;;;;19.81;50.82;98982.83;109200;1279;22212;-92
2022/07/29 20:46:47;;;;;;;15.50;5.30;;;;;;;19.78;50.92;98979.31;109235;1280;23146;-92
2022/07/29 20:49:35;;;;;;;12.20;5.10;;;;;;;19.83;51.01;98978.63;109210;1280;22292;-92
2022/07/29 20:52:43;;;;;;;11.80;4.60;;;;;;;19.85;50.99;98981.58;109168;1280;22931;-92
2022/07/29 20:55:49;;;;;;;14.00;5.30;;;;;;;19.89;51.05;98978.27;109422;1279;22212;-91
2022/07/29 20:58:43;;;;;;;;;;;;;;;;;;;;;
2022/07/29 21:01:27;;;;;;;10.10;5.10;;;;;;;19.95;51.33;98981.92;109197;1280;22266;-92
2022/07/29 21:04:00;;;;;;;11.20;5.40;;;;;;;19.95;51.40;98976.67;109346;1280;22524;-92
2022/07/29 21:06:34;;;;;;;13.40;5.50;;;;;;;19.96;51.55;98979.20;109169;1280;22343;-93
2022/07/29 21:09:51;;;;;;;15.30;6.20;;;;;;;19.98;51.71;98979.41;108967;1279;22479;-92
2022/07/29 21:15:58;;;;;;;18.80;5.70;;;;;;;19.91;51.92;98968.27;108822;1280;22453;-90
2022/07/29 21:30:29;;;;;;;12.30;6.10;;;;;;;19.75;52.16;98975.69;109492;1279;22364;-89
